Time;durP1;ratioP1;P1;durP2;ratioP2;P2;SDS_P1;SDS_P2;PMS_P1;PMS_P2;Temp;Humidity;BMP_temperature;BMP_pressure;BME280_temperature;BME280_humidity;BME280_pressure;Samples;Min_cycle;Max_cycle;Signal;HPM_P1;HPM_P2
2021/07/08 00:01:31;;;;;;;11.30;5.43;;;;;;;17.25;64.46;101146.72;5052058;28;20048;-67
2021/07/08 00:03:58;;;;;;;11.70;5.07;;;;;;;17.26;64.07;101157.72;5042206;28;20055;-67
2021/07/08 00:06:24;;;;;;;13.18;4.88;;;;;;;17.25;64.39;101147.56;5043159;28;20121;-67
2021/07/08 00:08:51;;;;;;;9.50;5.22;;;;;;;17.27;64.31;101144.44;5023778;28;20045;-68
2021/07/08 00:11:18;;;;;;;12.47;4.67;;;;;;;17.10;64.40;101130.91;5051865;28;20137;-68
2021/07/08 00:13:47;;;;;;;14.18;4.97;;;;;;;17.12;64.58;101134.25;5040373;28;20045;-69
2021/07/08 00:16:14;;;;;;;11.60;4.23;;;;;;;17.19;64.71;101139.50;5046236;28;20099;-69
2021/07/08 00:18:41;;;;;;;9.60;4.57;;;;;;;17.15;64.43;101138.44;5046322;28;20059;-69
2021/07/08 00:21:08;;;;;;;10.45;4.60;;;;;;;17.13;64.93;101133.13;5035664;28;20049;-68
2021/07/08 00:23:35;;;;;;;8.13;3.87;;;;;;;17.03;64.58;101127.66;5044487;28;20049;-66
2021/07/08 00:26:02;;;;;;;13.63;5.87;;;;;;;16.94;65.02;101119.06;5063555;28;20048;-66
2021/07/08 00:28:30;;;;;;;16.80;6.97;;;;;;;16.89;64.95;101105.06;5033209;28;20125;-67
2021/07/08 00:30:56;;;;;;;17.33;6.73;;;;;;;17.01;65.07;101130.78;5036140;28;20390;-67
2021/07/08 00:33:23;;;;;;;14.23;6.60;;;;;;;17.02;64.99;101138.09;5045423;28;20488;-66
2021/07/08 00:35:50;;;;;;;12.40;5.93;;;;;;;16.98;64.84;101139.03;5052281;28;20052;-66
2021/07/08 00:38:17;;;;;;;11.97;6.47;;;;;;;17.05;64.85;101142.28;5049251;28;20053;-66
2021/07/08 00:40:44;;;;;;;13.93;6.53;;;;;;;16.95;64.93;101120.72;5038980;28;20056;-67
2021/07/08 00:43:11;;;;;;;13.37;5.33;;;;;;;17.05;64.95;101139.47;5032608;28;20424;-65
2021/07/08 00:45:39;;;;;;;9.77;4.50;;;;;;;17.02;64.76;101134.44;5036235;28;20087;-65
2021/07/08 00:48:06;;;;;;;7.93;3.30;;;;;;;16.94;64.90;101126.69;5037277;28;20214;-63
2021/07/08 00:50:46;;;;;;;12.90;4.07;;;;;;;16.92;65.02;101115.72;5035079;28;20046;-64
2021/07/08 00:53:15;;;;;;;11.85;3.95;;;;;;;16.95;65.22;101114.25;5040612;28;20099;-66
2021/07/08 00:55:44;;;;;;;7.47;3.67;;;;;;;17.05;64.81;101131.81;5036837;28;20513;-65
2021/07/08 00:58:16;;;;;;;8.18;4.13;;;;;;;17.07;64.99;101114.59;5033563;28;20041;-66
2021/07/08 01:00:43;;;;;;;7.78;3.90;;;;;;;17.00;65.06;101109.38;5035694;28;20091;-66
2021/07/08 01:03:13;;;;;;;11.73;4.27;;;;;;;17.08;64.93;101115.44;5042713;28;20060;-67
2021/07/08 01:05:51;;;;;;;8.00;4.13;;;;;;;16.99;64.98;101104.88;5038408;28;20510;-65
2021/07/08 01:08:19;;;;;;;14.30;4.37;;;;;;;17.01;65.15;101113.84;5045572;28;20128;-66
2021/07/08 01:10:49;;;;;;;10.37;4.10;;;;;;;16.97;65.29;101101.53;5039000;28;20128;-66
2021/07/08 01:13:17;;;;;;;12.50;4.63;;;;;;;16.97;65.35;101106.31;5038264;28;20436;-66
2021/07/08 01:15:44;;;;;;;6.50;3.50;;;;;;;16.98;65.35;101108.00;5038994;28;20110;-64
2021/07/08 01:18:12;;;;;;;11.50;4.53;;;;;;;16.98;65.09;101108.00;5033633;28;20077;-65
2021/07/08 01:20:39;;;;;;;12.10;4.23;;;;;;;16.98;65.66;101106.00;5034716;28;20049;-65
2021/07/08 01:23:06;;;;;;;14.90;5.70;;;;;;;17.00;65.39;101108.53;5042018;28;20557;-62
2021/07/08 01:25:36;;;;;;;12.43;5.10;;;;;;;16.95;65.37;101091.69;5049287;28;20076;-62
2021/07/08 01:28:05;;;;;;;11.25;3.78;;;;;;;17.01;65.46;101096.09;5032641;28;20044;-60
2021/07/08 01:30:33;;;;;;;14.52;3.90;;;;;;;16.99;65.16;101098.38;5035014;28;20045;-61
2021/07/08 01:33:00;;;;;;;9.27;4.33;;;;;;;17.02;65.21;101103.41;5036790;28;20124;-60
2021/07/08 01:35:28;;;;;;;14.00;4.73;;;;;;;17.04;65.18;101103.94;5040972;28;20037;-61
2021/07/08 01:37:55;;;;;;;9.77;4.90;;;;;;;17.00;65.06;101100.91;5038203;28;20404;-61
2021/07/08 01:40:22;;;;;;;9.53;4.13;;;;;;;16.93;65.05;101094.00;5044336;28;20069;-61
2021/07/08 01:42:50;;;;;;;9.50;3.87;;;;;;;16.90;65.16;101089.81;5044854;28;20045;-61
2021/07/08 01:45:18;;;;;;;9.07;4.27;;;;;;;16.95;65.13;101097.31;5033713;28;20088;-61
2021/07/08 01:47:45;;;;;;;13.73;4.03;;;;;;;16.93;65.37;101094.00;5035594;28;20153;-60
2021/07/08 01:50:14;;;;;;;10.93;3.57;;;;;;;16.92;65.36;101095.13;5035180;28;20485;-61
2021/07/08 01:52:42;;;;;;;9.40;4.50;;;;;;;16.91;65.29;101091.47;5033922;28;20049;-60
2021/07/08 01:55:10;;;;;;;8.33;3.70;;;;;;;16.93;65.24;101096.81;5037365;28;20296;-59
2021/07/08 01:57:44;;;;;;;8.67;3.70;;;;;;;16.91;64.90;101085.00;5038172;28;20090;-59
2021/07/08 02:00:13;;;;;;;10.30;4.10;;;;;;;16.85;65.23;101072.13;5031615;28;20067;-59
2021/07/08 02:02:42;;;;;;;10.63;4.03;;;;;;;16.94;64.85;101090.03;5044085;28;20599;-58
2021/07/08 02:05:10;;;;;;;7.97;4.30;;;;;;;16.93;64.90;101097.66;5042194;28;20048;-59
2021/07/08 02:07:38;;;;;;;8.83;3.53;;;;;;;16.84;65.12;101073.28;5033037;28;20046;-59
2021/07/08 02:10:10;;;;;;;10.43;3.57;;;;;;;16.91;64.81;101087.81;5035871;28;20072;-59
2021/07/08 02:12:38;;;;;;;8.90;3.87;;;;;;;16.91;64.82;101079.34;5039287;28;20044;-59
2021/07/08 02:15:06;;;;;;;10.93;3.70;;;;;;;16.96;64.97;101087.72;5032221;28;20172;-57
2021/07/08 02:17:34;;;;;;;12.40;4.38;;;;;;;16.95;64.98;101086.03;5041824;28;20055;-59
2021/07/08 02:20:01;;;;;;;9.48;3.58;;;;;;;16.97;64.92;101080.94;5038754;28;20048;-59
2021/07/08 02:22:27;;;;;;;5.47;3.03;;;;;;;16.94;64.74;101068.28;5040699;28;20041;-57
2021/07/08 02:24:54;;;;;;;6.93;3.30;;;;;;;16.93;64.85;101057.31;5034124;28;20041;-58
2021/07/08 02:27:21;;;;;;;5.73;2.90;;;;;;;16.98;64.81;101085.41;5041101;28;20052;-61
2021/07/08 02:29:48;;;;;;;5.65;2.80;;;;;;;16.93;64.69;101079.88;5034120;28;20047;-62
2021/07/08 02:32:15;;;;;;;9.65;4.10;;;;;;;16.90;64.68;101080.50;5034433;28;20045;-60
2021/07/08 02:34:43;;;;;;;9.17;3.70;;;;;;;16.61;64.80;101032.75;5030617;28;20063;-61
2021/07/08 02:37:10;;;;;;;9.40;3.57;;;;;;;16.80;64.74;101061.78;5034008;28;20507;-60
2021/07/08 02:39:37;;;;;;;13.43;5.20;;;;;;;16.83;64.74;101071.63;5037813;28;20136;-60
2021/07/08 02:42:04;;;;;;;10.70;3.63;;;;;;;16.66;64.98;101053.25;5034167;28;20048;-61
2021/07/08 02:44:32;;;;;;;6.97;3.43;;;;;;;16.67;65.05;101054.09;5041100;28;20063;-61
2021/07/08 02:47:01;;;;;;;8.40;3.20;;;;;;;16.61;64.91;101053.34;5037308;28;20440;-60
2021/07/08 02:49:28;;;;;;;9.67;3.63;;;;;;;16.76;65.26;101061.56;5040177;28;20495;-59
2021/07/08 02:51:55;;;;;;;7.90;3.40;;;;;;;16.76;65.18;101072.84;5034565;28;20042;-63
2021/07/08 02:54:21;;;;;;;8.57;3.23;;;;;;;16.75;64.84;101074.00;5031414;28;20045;-63
2021/07/08 02:56:48;;;;;;;7.07;3.60;;;;;;;16.64;65.07;101069.63;5037878;28;20049;-63
2021/07/08 02:59:15;;;;;;;10.10;3.73;;;;;;;16.66;64.99;101072.16;5039738;28;20064;-65
2021/07/08 03:01:42;;;;;;;9.68;3.60;;;;;;;16.69;65.09;101078.03;5040932;28;20631;-63
2021/07/08 03:04:09;;;;;;;16.13;4.10;;;;;;;16.68;65.17;101062.22;5045664;28;20045;-62
2021/07/08 03:06:35;;;;;;;7.20;3.37;;;;;;;16.56;64.96;101042.16;5038185;28;20136;-60
2021/07/08 03:09:03;;;;;;;7.37;3.53;;;;;;;16.76;65.15;101067.22;5034636;28;20128;-60
2021/07/08 03:11:30;;;;;;;7.73;3.13;;;;;;;16.70;65.05;101062.78;5031509;28;20053;-59
2021/07/08 03:13:57;;;;;;;10.68;3.75;;;;;;;16.75;65.04;101067.50;5041172;28;20123;-62
2021/07/08 03:16:24;;;;;;;7.83;3.60;;;;;;;16.74;64.84;101079.91;5039076;28;20559;-61
2021/07/08 03:18:51;;;;;;;7.83;3.33;;;;;;;16.65;64.73;101071.34;5044470;28;20132;-60
2021/07/08 03:21:18;;;;;;;11.63;4.67;;;;;;;16.73;64.67;101090.34;5034665;28;20132;-61
2021/07/08 03:23:45;;;;;;;8.70;3.20;;;;;;;16.66;65.03;101077.81;5044787;28;20045;-60
2021/07/08 03:26:12;;;;;;;8.30;3.37;;;;;;;16.62;64.99;101074.78;5038424;28;20058;-60
2021/07/08 03:28:39;;;;;;;8.73;3.07;;;;;;;16.57;64.55;101072.84;5057286;28;20049;-61
2021/07/08 03:31:06;;;;;;;11.03;3.40;;;;;;;16.48;64.61;101069.09;5041065;28;20145;-60
2021/07/08 03:33:33;;;;;;;9.70;5.20;;;;;;;16.53;65.07;101085.91;5042385;28;20532;-60
2021/07/08 03:36:00;;;;;;;10.07;3.37;;;;;;;16.49;65.11;101084.84;5035174;28;20049;-60
2021/07/08 03:38:27;;;;;;;6.60;3.30;;;;;;;16.40;65.13;101080.22;5041265;28;20156;-60
2021/07/08 03:40:54;;;;;;;9.77;4.27;;;;;;;16.27;65.30;101064.91;5034910;28;20156;-65
2021/07/08 03:43:21;;;;;;;8.13;4.70;;;;;;;16.38;65.34;101094.63;5034349;28;20045;-61
2021/07/08 03:45:47;;;;;;;7.73;5.10;;;;;;;16.27;65.27;101081.81;5041964;28;20045;-64
2021/07/08 03:48:15;;;;;;;15.53;5.00;;;;;;;16.28;65.36;101089.97;5046473;28;20056;-62
2021/07/08 03:50:42;;;;;;;16.00;5.23;;;;;;;16.28;65.90;101104.06;5034600;28;20128;-59
2021/07/08 03:53:08;;;;;;;8.77;3.87;;;;;;;16.23;65.67;101101.31;5033028;28;21825;-59
2021/07/08 03:55:35;;;;;;;7.63;3.50;;;;;;;16.21;65.56;101094.34;5039451;28;20041;-59
2021/07/08 03:58:03;;;;;;;9.50;4.53;;;;;;;16.19;65.66;101097.44;5044561;28;20057;-59
2021/07/08 04:00:35;;;;;;;9.83;3.90;;;;;;;16.14;65.56;101091.91;5039145;28;20045;-59
2021/07/08 04:03:06;;;;;;;12.50;4.80;;;;;;;16.11;65.79;101098.13;5036290;28;20573;-59
2021/07/08 04:05:34;;;;;;;9.73;4.37;;;;;;;16.10;65.98;101097.31;5047407;28;20132;-60
2021/07/08 04:08:03;;;;;;;16.47;4.30;;;;;;;16.08;65.85;101101.56;5037798;28;20045;-66
2021/07/08 04:10:30;;;;;;;8.77;3.93;;;;;;;15.66;65.80;101030.06;5039678;28;20444;-65
2021/07/08 04:13:00;;;;;;;;;;;;;;;16.00;65.74;101088.13;5043093;28;20045;-63
2021/07/08 04:15:27;;;;;;;10.43;4.50;;;;;;;16.01;65.73;101092.66;5045104;28;19975;-63
2021/07/08 04:17:54;;;;;;;9.70;4.00;;;;;;;15.95;65.89;101091.03;5047932;28;20514;-62
2021/07/08 04:20:21;;;;;;;8.83;4.27;;;;;;;15.96;65.89;101103.97;5036459;28;20485;-63
2021/07/08 04:22:49;;;;;;;11.23;4.67;;;;;;;15.94;66.35;101095.00;5038980;28;20191;-65
2021/07/08 04:25:18;;;;;;;13.93;4.53;;;;;;;15.96;66.18;101098.34;5040228;28;20049;-65
2021/07/08 04:27:46;;;;;;;9.73;5.03;;;;;;;15.93;66.18;101090.50;5039900;28;20131;-63
2021/07/08 04:30:15;;;;;;;9.67;4.87;;;;;;;15.95;66.34;101093.88;5037569;28;20056;-61
2021/07/08 04:32:42;;;;;;;9.02;5.20;;;;;;;15.88;66.32;101085.78;5049541;28;20087;-61
2021/07/08 04:35:10;;;;;;;12.97;5.07;;;;;;;15.99;66.20;101097.75;5046687;28;20998;-61
2021/07/08 04:37:42;;;;;;;12.83;5.33;;;;;;;15.95;66.44;101091.03;5029850;28;20059;-63
2021/07/08 04:40:17;;;;;;;17.17;5.77;;;;;;;15.98;66.55;101101.72;5053776;28;20059;-62
2021/07/08 04:42:45;;;;;;;14.60;6.23;;;;;;;15.93;66.62;101093.31;5040422;28;20140;-62
2021/07/08 04:45:14;;;;;;;15.80;6.27;;;;;;;15.99;66.78;101104.22;5051664;28;20140;-63
2021/07/08 04:47:42;;;;;;;9.30;5.23;;;;;;;15.93;66.66;101090.50;5034451;28;20405;-64
2021/07/08 04:50:12;;;;;;;16.27;6.90;;;;;;;15.97;66.51;101105.69;5037489;28;20041;-60
2021/07/08 04:52:39;;;;;;;10.35;4.90;;;;;;;15.94;66.79;101106.28;5046987;28;20048;-61
2021/07/08 04:55:07;;;;;;;12.07;4.57;;;;;;;15.99;66.64;101114.66;5045615;28;20049;-61
2021/07/08 04:57:35;;;;;;;10.10;5.73;;;;;;;15.91;66.72;101115.34;5035547;28;20049;-60
2021/07/08 05:00:10;;;;;;;12.50;5.93;;;;;;;15.88;66.52;101102.69;5037323;28;20738;-60
2021/07/08 05:02:38;;;;;;;17.23;5.40;;;;;;;15.90;66.57;101106.06;5038660;28;20045;-61
2021/07/08 05:05:07;;;;;;;16.40;5.80;;;;;;;15.96;66.76;101115.25;5035631;28;20055;-60
2021/07/08 05:07:34;;;;;;;10.73;5.43;;;;;;;15.93;66.55;101115.84;5038471;28;20045;-59
2021/07/08 05:10:04;;;;;;;9.87;4.70;;;;;;;15.93;66.53;101121.47;5032747;28;20137;-71
2021/07/08 05:12:31;;;;;;;11.88;5.22;;;;;;;15.73;66.58;101100.94;5047503;28;20051;-65
2021/07/08 05:14:57;;;;;;;9.33;4.93;;;;;;;15.83;66.57;101126.13;5052593;28;20124;-62
2021/07/08 05:17:25;;;;;;;12.63;5.30;;;;;;;15.77;66.45;101124.53;5042059;28;20137;-64
2021/07/08 05:19:52;;;;;;;10.10;5.07;;;;;;;15.77;66.55;101130.16;5033466;28;20046;-64
2021/07/08 05:22:21;;;;;;;10.07;5.20;;;;;;;15.76;66.60;101134.13;5043980;28;20214;-62
2021/07/08 05:24:49;;;;;;;88.50;58.22;;;;;;;15.76;66.99;101125.66;5033715;28;20069;-63
2021/07/08 05:27:17;;;;;;;55.90;33.93;;;;;;;15.78;66.52;101130.97;5036809;28;20051;-64
2021/07/08 05:29:45;;;;;;;80.63;50.60;;;;;;;15.77;66.63;101113.25;5035290;28;20077;-64
2021/07/08 05:32:15;;;;;;;43.23;27.37;;;;;;;15.71;66.91;101116.44;5032065;28;20731;-66
2021/07/08 05:34:42;;;;;;;;;;;;;;;15.78;66.57;101120.56;5043626;28;20057;-61
2021/07/08 05:37:09;;;;;;;25.83;10.50;;;;;;;15.75;66.79;101115.53;5032827;28;20325;-64
2021/07/08 05:39:36;;;;;;;16.63;9.53;;;;;;;15.87;66.87;101132.84;5038046;28;20049;-63
2021/07/08 05:42:05;;;;;;;31.47;17.20;;;;;;;15.92;66.66;101125.44;5041004;28;20461;-60
2021/07/08 05:44:33;;;;;;;34.43;18.43;;;;;;;16.06;66.52;101129.19;5041548;28;20529;-63
2021/07/08 05:47:00;;;;;;;22.37;13.87;;;;;;;16.05;66.51;101116.25;5040854;28;20067;-61
2021/07/08 05:49:47;;;;;;;16.23;9.67;;;;;;;16.34;66.32;101141.44;5035997;28;20049;-60
2021/07/08 05:52:17;;;;;;;15.50;8.25;;;;;;;16.48;65.86;101138.72;5039624;28;20156;-65
2021/07/08 05:54:46;;;;;;;13.90;6.80;;;;;;;16.53;65.72;101133.81;5040613;28;20047;-64
2021/07/08 05:57:13;;;;;;;9.20;4.67;;;;;;;16.68;65.76;101143.19;5041691;28;20057;-64
2021/07/08 05:59:39;;;;;;;11.50;5.03;;;;;;;16.81;65.65;101143.25;5032543;28;20076;-61
2021/07/08 06:02:06;;;;;;;9.23;5.20;;;;;;;16.89;65.20;101149.34;5034583;28;20499;-64
2021/07/08 06:04:33;;;;;;;17.08;6.43;;;;;;;16.84;65.48;101149.44;5042328;28;20053;-65
2021/07/08 06:07:00;;;;;;;16.40;7.53;;;;;;;16.84;65.48;101152.25;5045756;28;20045;-62
2021/07/08 06:09:27;;;;;;;10.57;5.90;;;;;;;16.69;65.58;101117.50;5027337;28;20041;-60
2021/07/08 06:11:58;;;;;;;10.70;5.10;;;;;;;16.97;65.18;101146.66;5034344;28;20041;-65
2021/07/08 06:14:25;;;;;;;11.20;6.10;;;;;;;17.07;64.98;101150.47;5045053;28;20473;-61
2021/07/08 06:16:51;;;;;;;10.30;6.05;;;;;;;16.83;65.12;101085.72;5035228;28;20049;-65
2021/07/08 06:19:18;;;;;;;12.85;5.60;;;;;;;17.38;64.55;101156.38;5044573;28;20071;-65
2021/07/08 06:21:48;;;;;;;15.35;5.82;;;;;;;17.52;64.67;101154.38;5032074;28;20043;-65
2021/07/08 06:24:19;;;;;;;15.55;6.00;;;;;;;17.53;64.20;101130.63;5035422;28;20099;-65
2021/07/08 06:26:46;;;;;;;20.25;7.15;;;;;;;17.79;64.24;101138.63;5031249;28;20149;-65
2021/07/08 06:29:13;;;;;;;10.25;5.35;;;;;;;17.96;63.86;101150.13;5037162;28;20056;-64
2021/07/08 06:31:40;;;;;;;12.85;6.25;;;;;;;18.11;63.29;101146.94;5037653;28;20692;-64
2021/07/08 06:34:07;;;;;;;16.80;6.75;;;;;;;18.23;62.92;101135.09;5037450;28;20073;-63
2021/07/08 06:36:34;;;;;;;12.80;5.80;;;;;;;18.37;62.84;101135.06;5035458;28;20096;-63
2021/07/08 06:39:04;;;;;;;18.10;6.43;;;;;;;18.61;62.63;101149.72;5036362;28;20604;-62
2021/07/08 06:41:32;;;;;;;13.68;6.68;;;;;;;18.72;61.90;101147.50;5039321;28;20125;-62
2021/07/08 06:43:59;;;;;;;18.45;5.88;;;;;;;18.82;61.84;101154.91;5037774;28;20037;-62
2021/07/08 06:46:30;;;;;;;16.48;7.00;;;;;;;19.04;61.43;101148.41;5030921;28;20155;-62
2021/07/08 06:48:59;;;;;;;14.23;6.45;;;;;;;19.17;61.07;101145.47;5038793;28;20045;-62
2021/07/08 06:51:27;;;;;;;17.80;7.60;;;;;;;19.37;60.71;101155.41;5045433;28;20061;-62
2021/07/08 06:53:55;;;;;;;13.45;5.82;;;;;;;19.45;60.12;101133.94;5045426;28;20286;-62
2021/07/08 06:56:24;;;;;;;12.73;5.40;;;;;;;19.70;59.90;101140.09;5035054;28;20049;-62
2021/07/08 06:58:51;;;;;;;8.52;5.00;;;;;;;19.91;59.49;101158.19;5045753;28;20132;-62
2021/07/08 07:01:18;;;;;;;10.68;5.28;;;;;;;19.96;58.72;101148.66;5039317;28;20045;-62
2021/07/08 07:03:45;;;;;;;9.25;4.70;;;;;;;20.15;58.44;101163.41;5038400;28;20047;-62
2021/07/08 07:06:14;;;;;;;8.48;4.03;;;;;;;20.36;58.11;101163.59;5014418;28;20468;-62
2021/07/08 07:08:46;;;;;;;9.57;4.85;;;;;;;20.38;57.93;101144.25;5035346;28;20052;-62
2021/07/08 07:11:13;;;;;;;8.18;5.38;;;;;;;20.64;57.34;101149.94;5033158;28;20132;-61
2021/07/08 07:13:40;;;;;;;13.63;5.65;;;;;;;20.92;57.00;101160.94;5034474;28;20037;-63
2021/07/08 07:16:07;;;;;;;12.18;5.78;;;;;;;21.01;56.68;101151.25;5031661;28;20132;-63
2021/07/08 07:18:38;;;;;;;8.93;4.68;;;;;;;21.15;56.18;101145.38;5032304;28;20089;-63
2021/07/08 07:21:10;;;;;;;8.80;4.25;;;;;;;21.43;55.67;101167.72;5031755;28;20049;-63
2021/07/08 07:23:39;;;;;;;10.65;3.88;;;;;;;21.53;55.73;101162.50;5031992;28;20107;-63
2021/07/08 07:26:06;;;;;;;9.98;4.32;;;;;;;21.65;55.23;101175.16;5031757;28;20081;-63
2021/07/08 07:28:33;;;;;;;32.00;6.97;;;;;;;21.72;54.88;101155.56;5034441;28;20052;-63
2021/07/08 07:31:00;;;;;;;10.68;4.95;;;;;;;21.88;54.50;101159.50;5035494;28;20136;-63
2021/07/08 07:33:27;;;;;;;11.10;4.97;;;;;;;22.02;54.32;101156.44;5035178;28;20119;-63
2021/07/08 07:35:54;;;;;;;11.27;4.95;;;;;;;22.15;53.74;101154.50;5035965;28;20087;-63
2021/07/08 07:38:21;;;;;;;15.88;5.28;;;;;;;22.32;53.76;101165.78;5033975;28;20089;-64
2021/07/08 07:40:48;;;;;;;14.32;5.97;;;;;;;22.45;53.20;101158.97;5035169;28;20133;-64
2021/07/08 07:43:15;;;;;;;13.15;5.68;;;;;;;22.52;52.80;101164.13;5035334;28;20504;-63
2021/07/08 07:45:42;;;;;;;12.30;5.63;;;;;;;22.58;52.89;101159.06;5034728;28;20145;-64
2021/07/08 07:48:10;;;;;;;11.77;5.10;;;;;;;22.63;52.45;101151.16;5035251;28;20057;-64
2021/07/08 07:50:37;;;;;;;11.60;5.30;;;;;;;22.77;52.50;101162.25;5034296;28;20073;-63
2021/07/08 07:53:05;;;;;;;14.48;5.93;;;;;;;22.90;52.07;101158.25;5036037;28;20052;-63
2021/07/08 07:55:32;;;;;;;11.68;5.40;;;;;;;23.06;51.88;101154.81;5035656;28;20484;-63
2021/07/08 07:58:01;;;;;;;10.07;5.57;;;;;;;23.23;51.42;101148.09;5043602;28;20552;-63
2021/07/08 08:00:29;;;;;;;13.95;5.90;;;;;;;23.32;51.16;101157.38;5042892;28;20128;-62
2021/07/08 08:02:56;;;;;;;16.00;6.03;;;;;;;23.66;51.29;101147.56;5038941;28;20088;-67
2021/07/08 08:10:41;;;;;;;11.77;5.72;;;;;;;25.36;48.69;101156.09;5034464;28;20104;-67
2021/07/08 08:13:09;;;;;;;12.10;6.45;;;;;;;25.60;48.12;101137.97;5041635;28;20037;-67
2021/07/08 08:15:36;;;;;;;9.25;4.82;;;;;;;25.98;47.40;101150.78;5053674;28;20132;-67
2021/07/08 08:18:03;;;;;;;8.75;4.72;;;;;;;26.27;46.90;101151.50;5051135;28;20269;-68
2021/07/08 08:20:31;;;;;;;6.65;3.67;;;;;;;26.58;46.33;101162.88;5033751;28;20080;-68
2021/07/08 08:22:58;;;;;;;11.65;4.63;;;;;;;26.88;45.84;101159.44;5040971;28;20037;-67
2021/07/08 08:25:25;;;;;;;9.20;4.80;;;;;;;27.17;45.11;101155.94;5051437;28;20080;-68
2021/07/08 08:27:52;;;;;;;7.63;3.65;;;;;;;27.37;44.35;101150.19;5033817;28;20049;-67
2021/07/08 08:30:20;;;;;;;8.85;4.10;;;;;;;27.12;43.92;101098.94;5041572;28;20041;-68
2021/07/08 08:32:47;;;;;;;5.43;3.28;;;;;;;27.46;43.84;101150.78;5053048;28;20099;-67
2021/07/08 08:35:14;;;;;;;6.57;3.20;;;;;;;27.49;43.93;101149.16;5046983;28;20131;-68
2021/07/08 08:37:43;;;;;;;6.80;2.97;;;;;;;27.71;43.18;101154.06;5052447;28;20128;-68
2021/07/08 08:40:11;;;;;;;7.90;3.60;;;;;;;27.94;42.21;101142.63;5052741;28;20124;-68
2021/07/08 08:42:41;;;;;;;;;;;;;;;27.87;44.91;101148.25;5049823;28;20116;-68
2021/07/08 08:45:11;;;;;;;5.03;3.45;;;;;;;28.11;42.81;101142.06;5053480;28;20339;-68
2021/07/08 08:47:52;;;;;;;12.95;4.70;;;;;;;28.27;42.81;101139.03;5048443;28;20084;-69
2021/07/08 08:50:19;;;;;;;9.23;3.65;;;;;;;28.48;41.53;101129.91;5051344;28;20120;-68
2021/07/08 08:52:47;;;;;;;7.78;4.05;;;;;;;28.77;40.93;101136.84;5045354;28;20073;-68
2021/07/08 08:55:15;;;;;;;8.52;4.22;;;;;;;28.85;40.61;101136.94;5041596;28;20045;-68
2021/07/08 08:57:45;;;;;;;7.15;3.63;;;;;;;29.04;40.14;101137.63;5042092;28;20132;-67
2021/07/08 09:00:25;;;;;;;7.15;3.70;;;;;;;29.08;40.33;101133.97;5034335;28;20053;-68
2021/07/08 09:03:08;;;;;;;7.22;3.25;;;;;;;29.05;39.98;101110.53;5033898;28;20478;-68
2021/07/08 09:05:37;;;;;;;8.25;3.80;;;;;;;29.29;39.55;101132.16;5036239;28;20049;-68
2021/07/08 09:08:22;;;;;;;6.68;3.30;;;;;;;29.18;39.95;101121.75;5045178;28;20447;-68
2021/07/08 09:11:04;;;;;;;8.40;3.35;;;;;;;29.33;38.97;101131.34;5050911;28;20084;-68
2021/07/08 09:13:45;;;;;;;7.38;3.08;;;;;;;29.27;38.85;101136.66;5046300;28;20106;-68
2021/07/08 09:16:19;;;;;;;7.00;2.85;;;;;;;29.35;38.89;101123.16;5044287;28;20056;-68
2021/07/08 09:19:19;;;;;;;7.18;3.00;;;;;;;29.19;39.20;101124.22;5039443;28;20053;-68
2021/07/08 09:21:48;;;;;;;15.32;3.78;;;;;;;29.27;39.02;101128.84;5036583;28;20069;-69
2021/07/08 09:24:18;;;;;;;7.18;3.28;;;;;;;29.52;38.77;101131.16;5045631;28;20077;-68
2021/07/08 09:26:54;;;;;;;9.43;3.88;;;;;;;29.59;38.32;101136.13;5033719;28;20121;-68
2021/07/08 09:29:24;;;;;;;5.00;2.65;;;;;;;29.69;38.05;101113.25;5042316;28;20131;-68
2021/07/08 09:32:03;;;;;;;5.65;2.58;;;;;;;29.96;37.69;101125.38;5051203;28;20303;-67
2021/07/08 09:34:32;;;;;;;4.95;3.00;;;;;;;30.01;36.85;101117.59;5050847;28;20052;-68
2021/07/08 09:37:03;;;;;;;4.45;2.55;;;;;;;30.25;36.90;101119.00;5052716;28;20051;-68
2021/07/08 09:39:37;;;;;;;6.68;2.70;;;;;;;30.36;36.07;101117.88;5051619;28;20131;-69
2021/07/08 09:42:05;;;;;;;5.38;2.50;;;;;;;30.35;35.96;101121.97;5052701;28;20095;-69
2021/07/08 09:44:32;;;;;;;4.68;2.50;;;;;;;30.36;36.12;101115.00;5053159;28;20084;-69
2021/07/08 09:47:00;;;;;;;3.65;2.80;;;;;;;30.52;35.69;101129.06;5052937;28;20136;-69
2021/07/08 09:49:28;;;;;;;4.45;2.50;;;;;;;30.69;35.15;101111.00;5051444;28;20049;-69
2021/07/08 09:51:56;;;;;;;236.68;30.98;;;;;;;30.84;35.47;101120.59;5052166;28;20136;-69
2021/07/08 09:57:46;;;;;;;6.13;2.45;;;;;;;30.83;34.75;101113.16;5040601;28;20536;-69
2021/07/08 10:00:24;;;;;;;4.60;2.10;;;;;;;30.78;34.17;101119.34;5052582;28;20053;-69
2021/07/08 10:02:52;;;;;;;2.50;1.75;;;;;;;30.77;34.78;101120.56;5052775;28;20382;-68
2021/07/08 10:05:21;;;;;;;8.95;2.33;;;;;;;30.90;34.15;101098.75;5045337;28;20045;-69
2021/07/08 10:07:48;;;;;;;4.28;1.90;;;;;;;31.03;33.91;101116.53;5047033;28;20156;-68
2021/07/08 10:10:16;;;;;;;4.35;2.30;;;;;;;31.28;33.54;101118.63;5047506;28;20043;-68
2021/07/08 10:12:46;;;;;;;16.80;2.83;;;;;;;31.38;33.33;101118.72;5050459;28;20511;-68
2021/07/08 10:15:15;;;;;;;5.18;2.35;;;;;;;31.38;33.15;101118.72;5051154;28;20073;-69
2021/07/08 10:17:42;;;;;;;5.57;2.25;;;;;;;31.37;33.17;101116.22;5047869;28;20045;-68
2021/07/08 10:20:12;;;;;;;6.93;2.42;;;;;;;31.57;32.72;101099.34;5051445;28;20144;-68
2021/07/08 10:22:39;;;;;;;4.63;2.70;;;;;;;31.74;32.92;101112.13;5066810;28;20080;-68
2021/07/08 10:25:09;;;;;;;41.67;6.47;;;;;;;31.85;32.35;101113.75;5046477;28;20486;-68
2021/07/08 10:27:37;;;;;;;12.85;4.85;;;;;;;31.88;32.29;101111.31;5036335;28;20182;-68
2021/07/08 10:30:06;;;;;;;7.10;3.42;;;;;;;32.00;32.06;101111.72;5052242;28;20088;-67
2021/07/08 10:32:34;;;;;;;11.77;2.92;;;;;;;32.15;32.47;101097.25;5051106;28;20546;-68
2021/07/08 10:35:02;;;;;;;5.85;2.20;;;;;;;32.08;32.38;101092.31;5034557;28;20115;-69
2021/07/08 10:37:32;;;;;;;8.20;3.28;;;;;;;32.19;31.82;101098.88;5032583;28;20129;-68
2021/07/08 10:40:29;;;;;;;5.75;2.60;;;;;;;32.09;32.62;101100.56;5033393;28;20509;-68
2021/07/08 10:43:12;;;;;;;5.47;3.67;;;;;;;32.16;32.53;101104.66;5045439;28;20161;-68
2021/07/08 10:45:43;;;;;;;4.60;3.03;;;;;;;32.25;32.25;101100.13;5031677;28;20128;-68
2021/07/08 10:48:15;;;;;;;4.82;2.75;;;;;;;32.40;31.39;101109.56;5030040;28;20063;-69
2021/07/08 10:50:43;;;;;;;5.40;2.47;;;;;;;32.49;31.82;101077.38;5031578;28;20046;-67
2021/07/08 10:53:17;;;;;;;8.52;3.05;;;;;;;32.60;31.76;101097.56;5033398;28;20049;-67
2021/07/08 10:55:47;;;;;;;8.13;3.50;;;;;;;32.47;32.42;101089.31;5045950;28;20095;-68
2021/07/08 10:58:44;;;;;;;8.05;3.53;;;;;;;32.47;32.41;101097.19;5033452;28;20226;-67
2021/07/08 11:01:37;;;;;;;6.78;3.50;;;;;;;32.67;32.36;101098.34;5047296;28;20076;-68
2021/07/08 11:04:04;;;;;;;6.25;3.17;;;;;;;32.61;32.30;101094.22;5054143;28;20055;-68
2021/07/08 11:06:41;;;;;;;9.13;3.58;;;;;;;32.29;33.10;101095.16;5038166;28;20069;-68
2021/07/08 11:09:11;;;;;;;4.05;2.97;;;;;;;32.25;32.79;101090.63;5049153;28;20164;-67
2021/07/08 11:11:38;;;;;;;6.60;2.83;;;;;;;32.27;33.00;101094.72;5053683;28;20095;-68
2021/07/08 11:14:07;;;;;;;6.60;3.20;;;;;;;32.37;32.48;101087.28;5050414;28;20100;-68
2021/07/08 11:16:42;;;;;;;4.38;3.28;;;;;;;32.34;33.11;101088.09;5035749;28;20053;-67
2021/07/08 11:19:13;;;;;;;9.82;3.53;;;;;;;32.34;32.71;101088.09;5035218;28;20132;-68
2021/07/08 11:21:49;;;;;;;8.63;3.13;;;;;;;32.35;33.03;101088.94;5037452;28;20145;-68
2021/07/08 11:24:18;;;;;;;6.85;3.30;;;;;;;32.15;32.83;101080.75;5035152;28;20049;-68
2021/07/08 11:26:55;;;;;;;7.30;3.53;;;;;;;32.06;33.51;101097.66;5033437;28;20053;-69
2021/07/08 11:29:41;;;;;;;6.13;2.95;;;;;;;32.00;33.61;101102.22;5034741;28;20136;-69
2021/07/08 11:32:27;;;;;;;6.13;2.83;;;;;;;32.02;33.29;101099.75;5034782;28;20132;-69
2021/07/08 11:35:22;;;;;;;8.82;3.40;;;;;;;31.96;32.95;101101.41;5036951;28;20812;-68
2021/07/08 11:38:07;;;;;;;6.20;3.35;;;;;;;31.60;33.52;101098.50;5046955;28;20128;-69
2021/07/08 11:40:38;;;;;;;7.15;3.60;;;;;;;31.65;32.85;101103.03;5036431;28;20045;-68